createdAt,value
2022-12-07T00:01:55.131Z,32.10
2022-12-07T00:04:23.389Z,34.20
2022-12-07T00:06:53.984Z,30.30
2022-12-07T00:09:22.632Z,28.70
2022-12-07T00:11:52.348Z,26.50
2022-12-07T00:14:20.770Z,24.00
2022-12-07T00:16:51.876Z,23.70
2022-12-07T00:19:20.925Z,24.80
2022-12-07T00:21:49.316Z,22.10
2022-12-07T00:24:17.825Z,22.10
2022-12-07T00:26:46.467Z,23.30
2022-12-07T00:29:20.821Z,25.60
2022-12-07T00:31:49.174Z,24.10
2022-12-07T00:34:20.212Z,19.50
2022-12-07T00:36:48.841Z,20.70
2022-12-07T00:39:17.410Z,19.50
2022-12-07T00:41:45.800Z,18.80
2022-12-07T00:44:14.000Z,21.10
2022-12-07T00:46:42.271Z,23.50
2022-12-07T00:49:10.533Z,19.90
2022-12-07T00:51:38.775Z,19.70
2022-12-07T00:54:07.043Z,22.80
2022-12-07T00:56:35.333Z,20.40
2022-12-07T00:59:05.181Z,20.30
2022-12-07T01:01:36.452Z,17.20
2022-12-07T01:04:05.674Z,19.70
2022-12-07T01:06:34.039Z,16.80
2022-12-07T01:09:02.415Z,18.20
2022-12-07T01:11:31.839Z,20.10
2022-12-07T01:14:01.807Z,17.00
2022-12-07T01:16:32.415Z,16.80
2022-12-07T01:19:01.649Z,14.00
2022-12-07T01:21:37.134Z,12.90
2022-12-07T01:24:08.441Z,13.20
2022-12-07T01:26:36.691Z,13.70
2022-12-07T01:29:05.328Z,13.70
2022-12-07T01:31:33.672Z,13.10
2022-12-07T01:34:02.190Z,14.80
2022-12-07T01:36:33.082Z,13.20
2022-12-07T01:41:33.775Z,15.40
2022-12-07T01:44:28.079Z,11.60
2022-12-07T01:47:05.535Z,13.30
2022-12-07T01:49:49.677Z,13.70
2022-12-07T01:52:27.985Z,13.20
2022-12-07T01:55:05.046Z,11.60
2022-12-07T01:57:36.860Z,12.20
2022-12-07T02:00:07.433Z,13.00
2022-12-07T02:03:03.314Z,13.80
2022-12-07T02:05:33.507Z,10.90
2022-12-07T02:08:02.834Z,11.70
2022-12-07T02:10:33.253Z,12.80
2022-12-07T02:13:05.868Z,12.50
2022-12-07T02:15:50.571Z,13.60
2022-12-07T02:18:36.777Z,14.10
2022-12-07T02:21:35.601Z,12.20
2022-12-07T02:24:15.672Z,11.60
2022-12-07T02:27:21.135Z,15.20
2022-12-07T02:30:06.752Z,12.80
2022-12-07T02:32:52.456Z,14.20
2022-12-07T02:35:34.593Z,10.80
2022-12-07T02:38:31.143Z,14.00
2022-12-07T02:41:16.949Z,11.60
2022-12-07T02:43:53.742Z,14.90
2022-12-07T02:46:31.089Z,16.10
2022-12-07T02:49:03.083Z,26.70
2022-12-07T02:51:33.489Z,32.10
2022-12-07T02:54:01.920Z,8.10
2022-12-07T02:56:45.098Z,52.50
2022-12-07T02:59:31.634Z,22.10
2022-12-07T03:02:02.548Z,22.90
2022-12-07T03:07:23.554Z,12.70
2022-12-07T03:10:04.179Z,16.90
2022-12-07T03:12:59.995Z,17.70
2022-12-07T03:15:33.332Z,17.10
2022-12-07T03:18:03.161Z,23.80
2022-12-07T03:20:35.822Z,17.30
2022-12-07T03:23:10.618Z,32.10
2022-12-07T03:25:49.955Z,20.30
2022-12-07T03:28:23.441Z,20.30
2022-12-07T03:31:03.534Z,26.80
2022-12-07T03:33:52.107Z,17.30
2022-12-07T03:36:30.242Z,17.80
2022-12-07T03:39:21.806Z,22.90
2022-12-07T03:41:50.933Z,18.20
2022-12-07T03:44:19.977Z,21.30
2022-12-07T03:47:02.651Z,27.00
2022-12-07T03:49:55.099Z,13.00
2022-12-07T03:52:38.680Z,24.40
2022-12-07T03:55:12.536Z,20.70
2022-12-07T03:57:43.981Z,17.90
2022-12-07T04:00:13.486Z,18.50
2022-12-07T04:02:42.839Z,18.10
2022-12-07T04:05:12.441Z,21.50
2022-12-07T04:07:42.309Z,33.10
2022-12-07T04:10:11.698Z,21.60
2022-12-07T04:12:40.315Z,24.70
2022-12-07T04:15:09.381Z,25.30
2022-12-07T04:17:37.609Z,36.40
2022-12-07T04:20:07.004Z,43.80
2022-12-07T04:22:35.345Z,34.00
2022-12-07T04:25:03.787Z,28.10
2022-12-07T04:27:31.970Z,25.30
2022-12-07T04:30:00.535Z,26.80
2022-12-07T04:32:29.230Z,28.30
2022-12-07T04:34:57.458Z,28.80
2022-12-07T04:37:25.932Z,24.90
2022-12-07T04:39:54.586Z,28.60
2022-12-07T04:42:22.773Z,25.40
2022-12-07T04:44:52.054Z,31.30
2022-12-07T04:47:20.369Z,25.90
2022-12-07T04:49:48.698Z,36.50
2022-12-07T04:52:16.957Z,40.40
2022-12-07T04:54:45.180Z,48.30
2022-12-07T04:57:13.400Z,24.80
2022-12-07T04:59:45.494Z,32.10
2022-12-07T05:02:14.330Z,23.60
2022-12-07T05:04:42.670Z,27.60
2022-12-07T05:07:10.963Z,25.50
2022-12-07T05:09:39.228Z,33.80
2022-12-07T05:12:07.591Z,28.30
2022-12-07T05:14:35.795Z,22.20
2022-12-07T05:17:05.169Z,35.70
2022-12-07T05:19:33.443Z,40.80
2022-12-07T05:22:01.721Z,39.60
2022-12-07T05:24:29.994Z,39.90
2022-12-07T05:26:58.251Z,19.50
2022-12-07T05:29:26.535Z,22.50
2022-12-07T05:31:54.894Z,21.40
2022-12-07T05:34:23.417Z,16.60
2022-12-07T05:36:51.723Z,19.90
2022-12-07T05:39:20.031Z,21.40
2022-12-07T05:42:06.671Z,23.90
2022-12-07T05:44:34.938Z,20.70
2022-12-07T05:47:03.357Z,24.50
2022-12-07T05:49:31.736Z,20.10
2022-12-07T05:52:00.409Z,22.10
2022-12-07T05:54:28.719Z,19.00
2022-12-07T05:56:57.141Z,20.80
2022-12-07T05:59:26.081Z,20.80
2022-12-07T06:01:54.346Z,20.80
2022-12-07T06:04:23.591Z,22.20
2022-12-07T06:06:52.412Z,21.80
2022-12-07T06:09:23.138Z,21.50
2022-12-07T06:12:10.356Z,20.70
2022-12-07T06:14:38.949Z,17.10
2022-12-07T06:17:07.828Z,20.10
2022-12-07T06:19:36.466Z,20.30
2022-12-07T06:22:05.716Z,19.40
2022-12-07T06:24:34.942Z,17.90
2022-12-07T06:27:03.203Z,20.90
2022-12-07T06:29:32.037Z,19.40
2022-12-07T06:32:00.858Z,18.60
2022-12-07T06:34:29.273Z,20.90
2022-12-07T06:36:57.563Z,20.30
2022-12-07T06:39:28.207Z,17.70
2022-12-07T06:41:57.315Z,18.30
2022-12-07T06:44:26.353Z,23.40
2022-12-07T06:47:12.183Z,21.10
2022-12-07T06:49:42.973Z,22.80
2022-12-07T06:52:11.251Z,20.10
2022-12-07T06:54:39.510Z,19.70
2022-12-07T06:57:07.696Z,19.40
2022-12-07T06:59:36.004Z,19.60
2022-12-07T07:02:04.297Z,21.20
2022-12-07T07:04:32.685Z,21.00
2022-12-07T07:07:01.660Z,22.00
2022-12-07T07:09:29.832Z,24.30
2022-12-07T07:12:01.022Z,19.90
2022-12-07T07:14:29.513Z,24.60
2022-12-07T07:16:57.831Z,22.10
2022-12-07T07:19:26.169Z,17.70
2022-12-07T07:21:54.398Z,18.40
2022-12-07T07:24:22.700Z,17.50
2022-12-07T07:26:50.884Z,18.40
2022-12-07T07:29:19.251Z,20.20
2022-12-07T07:31:47.518Z,20.30
2022-12-07T07:34:18.678Z,18.40
2022-12-07T07:36:47.166Z,17.90
2022-12-07T07:39:15.472Z,17.60
2022-12-07T07:41:43.757Z,16.10
2022-12-07T07:44:14.282Z,15.40
2022-12-07T07:46:42.595Z,18.80
2022-12-07T07:49:12.121Z,13.50
2022-12-07T07:51:40.404Z,18.40
2022-12-07T07:54:08.750Z,14.50
2022-12-07T07:56:37.081Z,17.40
2022-12-07T07:59:05.387Z,19.00
2022-12-07T08:01:33.745Z,22.20
2022-12-07T08:04:02.426Z,26.10
2022-12-07T08:06:32.387Z,27.20
2022-12-07T08:09:01.076Z,23.80
2022-12-07T08:11:29.709Z,22.50
2022-12-07T08:13:57.940Z,24.40
2022-12-07T08:16:26.239Z,24.60
2022-12-07T08:18:54.693Z,27.30
2022-12-07T08:21:23.333Z,26.60
2022-12-07T08:23:51.693Z,25.10
2022-12-07T08:26:20.032Z,25.90
2022-12-07T08:28:48.372Z,26.10
2022-12-07T08:31:19.349Z,22.80
2022-12-07T08:33:48.851Z,25.00
2022-12-07T08:36:19.215Z,23.30
2022-12-07T08:39:22.736Z,26.30
2022-12-07T08:41:35.914Z,25.80
2022-12-07T08:44:04.598Z,23.70
2022-12-07T08:46:39.197Z,23.70
2022-12-07T08:49:15.069Z,25.60
2022-12-07T08:51:43.700Z,24.50
2022-12-07T08:54:16.267Z,24.90
2022-12-07T08:56:46.882Z,23.80
2022-12-07T08:59:18.146Z,23.60
2022-12-07T09:01:46.466Z,25.40
2022-12-07T09:04:14.893Z,25.60
2022-12-07T09:06:43.543Z,25.60
2022-12-07T09:09:14.818Z,23.90
2022-12-07T09:11:43.445Z,24.90
2022-12-07T09:14:13.493Z,24.10
2022-12-07T09:16:41.762Z,24.50
2022-12-07T09:19:10.311Z,26.60
2022-12-07T09:21:38.555Z,27.00
2022-12-07T09:24:10.239Z,21.60
2022-12-07T09:26:40.459Z,28.40
2022-12-07T09:29:08.763Z,23.40
2022-12-07T09:31:38.182Z,23.50
2022-12-07T09:34:07.315Z,26.90
2022-12-07T09:36:35.751Z,29.00
2022-12-07T09:39:05.909Z,28.10
2022-12-07T09:41:34.630Z,28.50
2022-12-07T09:44:11.475Z,28.20
2022-12-07T09:46:43.161Z,24.30
2022-12-07T09:49:19.740Z,27.30
2022-12-07T09:51:49.209Z,34.30
2022-12-07T09:54:17.961Z,28.00
2022-12-07T09:56:46.340Z,23.70
2022-12-07T09:59:19.664Z,26.60
2022-12-07T10:01:50.911Z,27.20
2022-12-07T10:04:27.959Z,28.80
2022-12-07T10:06:56.284Z,26.90
2022-12-07T10:09:26.164Z,25.40
2022-12-07T10:12:03.689Z,20.90
2022-12-07T10:15:05.457Z,24.40
2022-12-07T10:17:34.397Z,27.10
2022-12-07T10:20:14.577Z,29.10
2022-12-07T10:22:58.153Z,29.30
2022-12-07T10:25:29.811Z,27.00
2022-12-07T10:28:19.486Z,27.60
2022-12-07T10:31:06.374Z,29.60
2022-12-07T10:34:02.263Z,31.90
2022-12-07T10:36:33.540Z,22.10
2022-12-07T10:39:13.744Z,21.20
2022-12-07T10:42:04.726Z,24.10
2022-12-07T10:44:38.189Z,22.00
2022-12-07T10:47:26.541Z,17.30
2022-12-07T10:50:17.509Z,19.00
2022-12-07T10:53:23.304Z,18.50
2022-12-07T10:56:04.769Z,19.40
2022-12-07T10:58:56.022Z,17.40
2022-12-07T11:01:42.022Z,17.10
2022-12-07T11:04:31.515Z,17.20
2022-12-07T11:07:24.432Z,17.70
2022-12-07T11:10:10.680Z,18.40
2022-12-07T11:13:13.362Z,20.00
2022-12-07T11:16:03.727Z,21.70
2022-12-07T11:19:02.980Z,25.60
2022-12-07T11:21:33.960Z,20.50
2022-12-07T11:24:10.986Z,25.20
2022-12-07T11:26:49.299Z,23.90
2022-12-07T11:29:29.726Z,23.40
2022-12-07T11:32:20.463Z,23.30
2022-12-07T11:34:54.675Z,24.00
2022-12-07T11:37:36.342Z,25.40
2022-12-07T11:40:20.121Z,22.70
2022-12-07T11:43:00.293Z,21.70
2022-12-07T11:45:32.508Z,31.00
2022-12-07T11:48:15.872Z,30.20
2022-12-07T11:50:48.267Z,31.70
2022-12-07T11:53:25.281Z,28.70
2022-12-07T11:56:16.514Z,28.20
2022-12-07T11:58:53.833Z,25.50
2022-12-07T12:01:40.441Z,24.80
2022-12-07T12:04:11.753Z,20.00
2022-12-07T12:06:42.767Z,20.80
2022-12-07T12:15:33.518Z,19.20
2022-12-07T12:18:15.880Z,19.30
2022-12-07T12:20:44.068Z,15.30
2022-12-07T12:23:18.351Z,17.70
2022-12-07T12:25:50.052Z,16.00
2022-12-07T12:28:30.275Z,16.90
2022-12-07T12:31:14.021Z,16.60
2022-12-07T12:33:57.404Z,14.40
2022-12-07T12:36:31.967Z,15.70
2022-12-07T12:39:00.320Z,14.90
2022-12-07T12:42:00.491Z,13.90
2022-12-07T12:44:34.769Z,12.80
2022-12-07T12:47:43.324Z,12.40
2022-12-07T12:50:26.903Z,13.10
2022-12-07T12:53:20.813Z,13.70
2022-12-07T12:56:19.771Z,14.20
2022-12-07T12:58:49.683Z,16.60
2022-12-07T13:01:41.125Z,13.60
2022-12-07T13:04:25.409Z,13.30
2022-12-07T13:06:54.589Z,14.10
2022-12-07T13:09:29.736Z,14.60
2022-12-07T13:12:12.631Z,14.80
2022-12-07T13:15:00.009Z,15.00
2022-12-07T13:17:34.281Z,15.00
2022-12-07T13:20:04.067Z,14.50
2022-12-07T13:22:32.319Z,16.80
2022-12-07T13:25:06.255Z,14.30
2022-12-07T13:27:36.179Z,13.70
2022-12-07T13:30:20.868Z,17.60
2022-12-07T13:32:58.078Z,14.80
2022-12-07T13:35:34.459Z,16.40
2022-12-07T13:38:19.228Z,14.80
2022-12-07T13:41:13.835Z,15.80
2022-12-07T13:44:04.031Z,14.20
2022-12-07T13:46:59.463Z,14.80
2022-12-07T13:49:40.176Z,13.10
2022-12-07T13:52:21.889Z,13.90
2022-12-07T13:55:15.513Z,14.10
2022-12-07T13:57:48.310Z,16.60
2022-12-07T14:00:19.988Z,14.50
2022-12-07T14:03:00.757Z,13.70
2022-12-07T14:08:04.710Z,13.30
2022-12-07T14:10:35.360Z,16.40
2022-12-07T14:13:20.542Z,14.20
2022-12-07T14:15:52.171Z,15.70
2022-12-07T14:18:31.008Z,15.00
2022-12-07T14:21:11.110Z,15.60
2022-12-07T14:23:40.615Z,15.80
2022-12-07T14:26:14.153Z,18.80
2022-12-07T14:28:44.711Z,14.20
2022-12-07T14:31:26.187Z,15.20
2022-12-07T14:34:01.312Z,18.70
2022-12-07T14:36:29.498Z,18.00
2022-12-07T14:38:59.250Z,17.30
2022-12-07T14:41:46.071Z,20.50
2022-12-07T14:44:24.760Z,19.20
2022-12-07T14:49:42.898Z,19.50
2022-12-07T14:55:32.216Z,18.30
2022-12-07T14:58:00.762Z,16.00
2022-12-07T15:00:30.210Z,17.50
2022-12-07T15:02:58.519Z,18.10
2022-12-07T15:05:27.041Z,15.60
2022-12-07T15:07:55.388Z,15.70
2022-12-07T15:10:30.917Z,15.50
2022-12-07T15:13:19.030Z,16.00
2022-12-07T15:15:52.384Z,14.40
2022-12-07T15:18:22.270Z,17.00
2022-12-07T15:20:51.099Z,17.40
2022-12-07T15:23:19.432Z,16.50
2022-12-07T15:25:49.808Z,18.70
2022-12-07T15:28:18.099Z,17.30
2022-12-07T15:30:46.447Z,18.40
2022-12-07T15:33:15.183Z,16.60
2022-12-07T15:35:44.929Z,16.90
2022-12-07T15:38:14.169Z,21.10
2022-12-07T15:40:42.389Z,19.80
2022-12-07T15:43:30.995Z,18.10
2022-12-07T15:46:00.463Z,21.80
2022-12-07T15:48:29.678Z,19.90
2022-12-07T15:51:06.968Z,16.70
2022-12-07T15:53:35.816Z,16.10
2022-12-07T15:56:07.762Z,16.00
2022-12-07T15:58:36.420Z,15.40
2022-12-07T16:01:15.055Z,18.30
2022-12-07T16:03:44.037Z,16.90
2022-12-07T16:06:13.041Z,15.50
2022-12-07T16:08:45.669Z,17.20
2022-12-07T16:11:14.625Z,17.30
2022-12-07T16:13:42.984Z,18.30
2022-12-07T16:16:14.865Z,17.60
2022-12-07T16:18:44.962Z,17.70
2022-12-07T16:21:15.899Z,14.80
2022-12-07T16:23:45.883Z,18.80
2022-12-07T16:26:20.100Z,17.60
2022-12-07T16:28:53.169Z,17.30
2022-12-07T16:31:23.934Z,15.40
2022-12-07T16:33:55.702Z,15.10
2022-12-07T16:36:54.952Z,19.90
2022-12-07T16:39:14.186Z,15.70
2022-12-07T16:41:42.474Z,15.10
2022-12-07T16:44:13.555Z,15.10
2022-12-07T16:46:43.191Z,15.60
2022-12-07T16:49:15.267Z,17.50
2022-12-07T16:51:48.373Z,18.60
2022-12-07T16:54:17.115Z,18.90
2022-12-07T16:56:45.431Z,19.30
2022-12-07T16:59:13.693Z,20.80
2022-12-07T17:01:41.972Z,21.30
2022-12-07T17:04:11.856Z,19.70
2022-12-07T17:06:40.249Z,19.10
2022-12-07T17:09:10.823Z,28.40
2022-12-07T17:11:39.141Z,22.80
2022-12-07T17:14:25.712Z,23.30
2022-12-07T17:16:54.123Z,24.30
2022-12-07T17:19:22.457Z,27.70
2022-12-07T17:21:51.686Z,24.30
2022-12-07T17:24:20.054Z,23.00
2022-12-07T17:26:48.545Z,22.80
2022-12-07T17:29:18.926Z,22.60
2022-12-07T17:31:51.755Z,23.80
2022-12-07T17:34:20.429Z,17.00
2022-12-07T17:36:48.790Z,19.40
2022-12-07T17:39:18.753Z,18.40
2022-12-07T17:42:05.988Z,19.30
2022-12-07T17:44:34.375Z,24.90
2022-12-07T17:47:04.206Z,22.40
2022-12-07T17:49:32.651Z,19.90
2022-12-07T17:52:19.572Z,19.90
2022-12-07T17:54:48.042Z,20.70
2022-12-07T17:57:16.319Z,19.20
2022-12-07T17:59:45.426Z,19.50
2022-12-07T18:02:13.865Z,19.40
2022-12-07T18:04:43.166Z,20.80
2022-12-07T18:07:11.652Z,19.10
2022-12-07T18:09:40.192Z,17.70
2022-12-07T18:12:09.195Z,20.00
2022-12-07T18:14:37.538Z,21.00
2022-12-07T18:17:06.039Z,18.30
2022-12-07T18:19:37.284Z,20.50
2022-12-07T18:22:05.637Z,19.80
2022-12-07T18:24:37.136Z,19.50
2022-12-07T18:27:07.047Z,26.10
2022-12-07T18:29:35.273Z,26.30
2022-12-07T18:32:05.123Z,20.70
2022-12-07T18:34:33.500Z,17.50
2022-12-07T18:37:01.809Z,18.90
2022-12-07T18:39:33.708Z,18.70
2022-12-07T18:42:02.579Z,21.10
2022-12-07T18:44:30.881Z,20.70
2022-12-07T18:46:59.491Z,22.60
2022-12-07T18:49:27.772Z,19.40
2022-12-07T18:51:56.081Z,20.60
2022-12-07T18:54:24.358Z,20.80
2022-12-07T18:56:52.759Z,17.10
2022-12-07T18:59:39.446Z,18.00
2022-12-07T19:02:08.156Z,20.40
2022-12-07T19:04:36.587Z,22.90
2022-12-07T19:07:04.772Z,24.90
2022-12-07T19:09:32.991Z,26.00
2022-12-07T19:12:04.375Z,19.10
2022-12-07T19:14:37.868Z,22.70
2022-12-07T19:17:09.663Z,22.10
2022-12-07T19:19:44.242Z,21.80
2022-12-07T19:22:18.528Z,19.50
2022-12-07T19:24:50.083Z,21.40
2022-12-07T19:27:19.728Z,20.00
2022-12-07T19:29:48.827Z,19.60
2022-12-07T19:32:18.287Z,22.70
2022-12-07T19:34:48.214Z,17.90
2022-12-07T19:37:16.765Z,24.90
2022-12-07T19:39:46.657Z,23.30
2022-12-07T19:42:15.388Z,24.00
2022-12-07T19:44:43.976Z,25.60
2022-12-07T19:47:15.790Z,22.20
2022-12-07T19:49:45.596Z,23.00
2022-12-07T19:52:14.626Z,20.20
2022-12-07T19:54:43.001Z,23.70
2022-12-07T19:57:16.055Z,20.00
2022-12-07T19:59:44.596Z,15.80
2022-12-07T20:02:15.187Z,19.70
2022-12-07T20:04:44.917Z,17.00
2022-12-07T20:07:13.710Z,19.40
2022-12-07T20:09:42.384Z,19.50
2022-12-07T20:12:29.914Z,20.50
2022-12-07T20:14:59.474Z,19.70
2022-12-07T20:17:28.025Z,20.10
2022-12-07T20:19:56.432Z,21.10
2022-12-07T20:22:24.848Z,18.00
2022-12-07T20:24:53.101Z,15.30
2022-12-07T20:27:21.523Z,15.00
2022-12-07T20:29:50.942Z,17.20
2022-12-07T20:32:19.183Z,17.60
2022-12-07T20:34:47.756Z,20.60
2022-12-07T20:37:16.195Z,22.30
2022-12-07T20:39:44.408Z,20.50
2022-12-07T20:42:31.396Z,17.80
2022-12-07T20:45:02.966Z,15.90
2022-12-07T20:47:33.365Z,17.80
2022-12-07T20:50:02.811Z,17.60
2022-12-07T20:52:31.373Z,14.50
2022-12-07T20:54:59.744Z,16.10
2022-12-07T20:57:28.000Z,20.00
2022-12-07T20:59:56.359Z,18.40
2022-12-07T21:02:26.097Z,18.70
2022-12-07T21:04:54.471Z,15.90
2022-12-07T21:07:22.723Z,20.40
2022-12-07T21:09:52.605Z,20.80
2022-12-07T21:12:20.946Z,14.80
2022-12-07T21:14:49.202Z,19.90
2022-12-07T21:17:17.485Z,20.20
2022-12-07T21:19:45.824Z,18.50
2022-12-07T21:22:14.146Z,19.90
2022-12-07T21:24:42.451Z,21.20
2022-12-07T21:27:10.729Z,18.30
2022-12-07T21:29:48.699Z,17.10
2022-12-07T21:32:21.055Z,15.70
2022-12-07T21:34:49.424Z,15.50
2022-12-07T21:37:17.787Z,20.00
2022-12-07T21:39:46.075Z,21.40
2022-12-07T21:42:14.421Z,22.60
2022-12-07T21:44:42.730Z,19.90
2022-12-07T21:47:10.966Z,20.60
2022-12-07T21:49:39.256Z,17.80
2022-12-07T21:52:07.627Z,14.60
2022-12-07T21:54:36.214Z,13.10
2022-12-07T21:57:04.443Z,13.90
2022-12-07T21:59:32.760Z,13.10
2022-12-07T22:02:01.152Z,12.60
2022-12-07T22:04:29.518Z,11.00
2022-12-07T22:06:58.099Z,11.80
2022-12-07T22:09:27.772Z,12.80
2022-12-07T22:11:56.146Z,13.10
2022-12-07T22:14:42.527Z,15.00
2022-12-07T22:17:10.710Z,14.30
2022-12-07T22:19:39.038Z,13.60
2022-12-07T22:22:07.312Z,13.10
2022-12-07T22:24:35.558Z,14.20
2022-12-07T22:27:03.924Z,10.50
2022-12-07T22:29:32.141Z,11.00
2022-12-07T22:32:09.201Z,10.10
2022-12-07T22:34:47.086Z,16.30
2022-12-07T22:37:15.369Z,11.30
2022-12-07T22:39:43.603Z,12.20
2022-12-07T22:42:11.857Z,12.00
2022-12-07T22:44:42.951Z,8.50
2022-12-07T22:47:13.921Z,9.00
2022-12-07T22:49:42.772Z,9.70
2022-12-07T22:52:11.112Z,8.30
2022-12-07T22:54:39.409Z,8.90
2022-12-07T22:57:07.689Z,9.60
2022-12-07T22:59:35.981Z,10.10
2022-12-07T23:02:04.245Z,10.10
2022-12-07T23:04:32.694Z,12.80
2022-12-07T23:07:01.348Z,8.80
2022-12-07T23:09:29.745Z,12.40
2022-12-07T23:12:16.666Z,12.30
2022-12-07T23:14:44.893Z,9.10
2022-12-07T23:17:13.163Z,11.10
2022-12-07T23:19:41.446Z,10.10
2022-12-07T23:22:09.735Z,10.60
2022-12-07T23:24:37.937Z,11.30
2022-12-07T23:27:06.179Z,12.30
2022-12-07T23:29:34.476Z,13.50
2022-12-07T23:32:02.843Z,11.80
2022-12-07T23:34:31.108Z,9.20
2022-12-07T23:36:59.476Z,9.90
2022-12-07T23:39:27.704Z,10.10
2022-12-07T23:41:55.904Z,8.90
2022-12-07T23:44:26.129Z,10.90
2022-12-07T23:46:55.659Z,10.70
2022-12-07T23:49:24.037Z,9.50
2022-12-07T23:51:52.419Z,8.90
2022-12-07T23:54:20.735Z,11.10
2022-12-07T23:56:49.058Z,10.60
2022-12-07T23:59:17.460Z,7.50
